createdAt,value
2023-12-11T00:01:47.500Z,73.70
2023-12-11T00:04:14.777Z,58.97
2023-12-11T00:06:42.114Z,75.93
2023-12-11T00:09:09.452Z,77.13
2023-12-11T00:11:36.709Z,74.15
2023-12-11T00:14:04.037Z,87.90
2023-12-11T00:16:31.259Z,103.93
2023-12-11T00:18:58.949Z,96.00
2023-12-11T00:21:26.280Z,82.90
2023-12-11T00:23:54.214Z,82.78
2023-12-11T00:26:21.374Z,158.07
2023-12-11T00:28:48.765Z,106.50
2023-12-11T00:31:16.233Z,115.70
2023-12-11T00:33:43.763Z,74.70
2023-12-11T00:36:11.196Z,86.53
2023-12-11T00:38:38.492Z,96.63
2023-12-11T00:41:05.792Z,91.95
2023-12-11T00:43:44.461Z,86.10
2023-12-11T00:46:14.547Z,74.28
2023-12-11T00:48:41.999Z,67.50
2023-12-11T00:51:15.856Z,84.45
2023-12-11T00:53:43.166Z,74.07
2023-12-11T00:56:10.338Z,98.25
2023-12-11T00:58:37.529Z,92.88
2023-12-11T01:01:05.047Z,79.20
2023-12-11T01:03:32.308Z,98.97
2023-12-11T01:05:59.492Z,83.75
2023-12-11T01:08:29.589Z,84.03
2023-12-11T01:10:57.038Z,86.47
2023-12-11T01:13:24.523Z,86.05
2023-12-11T01:15:51.757Z,102.72
2023-12-11T01:18:19.152Z,102.07
2023-12-11T01:20:46.396Z,75.88
2023-12-11T01:23:13.676Z,62.30
2023-12-11T01:25:41.110Z,74.70
2023-12-11T01:28:08.407Z,95.43
2023-12-11T01:30:35.764Z,76.68
2023-12-11T01:33:03.914Z,75.15
2023-12-11T01:35:31.363Z,55.40
2023-12-11T01:37:58.585Z,66.32
2023-12-11T01:40:25.785Z,75.65
2023-12-11T01:43:01.240Z,58.03
2023-12-11T01:45:34.555Z,61.10
2023-12-11T01:48:01.812Z,70.95
2023-12-11T01:50:29.232Z,61.60
2023-12-11T01:52:56.967Z,64.03
2023-12-11T01:55:24.880Z,66.65
2023-12-11T01:57:52.585Z,55.30
2023-12-11T02:00:20.247Z,49.50
2023-12-11T02:02:47.741Z,42.95
2023-12-11T02:08:14.448Z,40.72
2023-12-11T02:10:43.117Z,67.45
2023-12-11T02:13:10.776Z,66.13
2023-12-11T02:15:38.071Z,57.30
2023-12-11T02:18:05.428Z,46.70
2023-12-11T02:20:32.876Z,42.95
2023-12-11T02:23:01.954Z,37.22
2023-12-11T02:25:31.997Z,35.80
2023-12-11T02:27:59.674Z,33.83
2023-12-11T02:30:28.801Z,35.05
2023-12-11T02:32:56.168Z,30.00
2023-12-11T02:35:23.564Z,29.77
2023-12-11T02:37:50.752Z,32.78
2023-12-11T02:40:18.135Z,30.50
2023-12-11T02:42:48.553Z,32.70
2023-12-11T02:45:18.983Z,39.72
2023-12-11T02:47:46.489Z,34.50
2023-12-11T02:50:13.819Z,28.20
2023-12-11T02:52:41.039Z,38.13
2023-12-11T02:55:08.597Z,33.95
2023-12-11T02:57:36.046Z,31.25
2023-12-11T03:00:03.542Z,31.52
2023-12-11T03:02:31.264Z,28.20
2023-12-11T03:04:59.479Z,33.17
2023-12-11T03:07:27.059Z,29.85
2023-12-11T03:09:54.425Z,31.75
2023-12-11T03:12:21.701Z,28.55
2023-12-11T03:14:49.052Z,29.42
2023-12-11T03:17:16.427Z,28.05
2023-12-11T03:19:43.810Z,25.17
2023-12-11T03:22:11.149Z,28.73
2023-12-11T03:24:38.320Z,22.98
2023-12-11T03:27:05.766Z,26.08
2023-12-11T03:29:33.261Z,28.77
2023-12-11T03:32:00.862Z,27.70
2023-12-11T03:34:28.514Z,27.27
2023-12-11T03:36:56.017Z,25.52
2023-12-11T03:39:23.243Z,25.10
2023-12-11T03:41:51.694Z,26.10
2023-12-11T03:44:19.141Z,26.42
2023-12-11T03:46:46.456Z,24.05
2023-12-11T03:49:18.091Z,25.23
2023-12-11T03:51:45.793Z,22.73
2023-12-11T03:54:13.306Z,22.45
2023-12-11T03:56:40.830Z,23.38
2023-12-11T03:59:08.201Z,24.65
2023-12-11T04:01:35.642Z,29.63
2023-12-11T04:04:03.418Z,29.35
2023-12-11T04:06:31.085Z,33.67
2023-12-11T04:08:58.625Z,31.52
2023-12-11T04:11:25.870Z,33.28
2023-12-11T04:13:53.329Z,34.65
2023-12-11T04:16:20.597Z,32.65
2023-12-11T04:18:48.002Z,32.35
2023-12-11T04:21:15.298Z,32.50
2023-12-11T04:23:42.546Z,35.33
2023-12-11T04:26:09.707Z,32.72
2023-12-11T04:28:36.916Z,31.05
2023-12-11T04:31:04.385Z,38.05
2023-12-11T04:33:34.191Z,34.20
2023-12-11T04:36:01.564Z,40.05
2023-12-11T04:38:29.011Z,43.42
2023-12-11T04:40:56.360Z,40.28
2023-12-11T04:43:23.564Z,59.08
2023-12-11T04:45:50.947Z,51.28
2023-12-11T04:48:18.534Z,53.67
2023-12-11T04:50:46.276Z,52.95
2023-12-11T04:53:13.668Z,84.65
2023-12-11T04:55:41.025Z,79.63
2023-12-11T04:58:08.404Z,50.50
2023-12-11T05:00:35.708Z,60.25
2023-12-11T05:03:03.280Z,51.50
2023-12-11T05:05:30.592Z,44.47
2023-12-11T05:07:58.013Z,58.92
2023-12-11T05:10:25.276Z,33.63
2023-12-11T05:12:52.439Z,44.03
2023-12-11T05:15:20.111Z,53.30
2023-12-11T05:17:47.566Z,49.05
2023-12-11T05:20:17.560Z,59.55
2023-12-11T05:22:44.862Z,102.80
2023-12-11T05:25:12.169Z,58.75
2023-12-11T05:27:40.514Z,81.55
2023-12-11T05:30:08.557Z,63.60
2023-12-11T05:32:36.261Z,66.60
2023-12-11T05:35:04.996Z,49.92
2023-12-11T05:37:32.693Z,52.78
2023-12-11T05:40:20.764Z,122.13
2023-12-11T05:42:47.376Z,54.20
2023-12-11T05:45:14.570Z,55.42
2023-12-11T05:47:41.948Z,68.32
2023-12-11T05:50:09.712Z,59.65
2023-12-11T05:52:37.110Z,103.75
2023-12-11T05:55:04.842Z,58.55
2023-12-11T05:57:32.616Z,69.38
2023-12-11T05:59:59.947Z,56.65
2023-12-11T06:02:27.367Z,76.07
2023-12-11T06:04:54.680Z,46.30
2023-12-11T06:07:21.993Z,69.40
2023-12-11T06:09:49.769Z,62.15
2023-12-11T06:12:17.269Z,76.32
2023-12-11T06:14:47.394Z,37.90
2023-12-11T06:17:16.812Z,52.40
2023-12-11T06:19:44.708Z,51.60
2023-12-11T06:22:12.829Z,58.40
2023-12-11T06:24:41.189Z,42.60
2023-12-11T06:27:09.746Z,41.65
2023-12-11T06:29:37.868Z,42.47
2023-12-11T06:32:05.509Z,45.20
2023-12-11T06:34:34.985Z,47.70
2023-12-11T06:37:03.345Z,50.30
2023-12-11T06:39:31.448Z,53.80
2023-12-11T06:42:00.112Z,42.75
2023-12-11T06:44:27.911Z,46.85
2023-12-11T06:46:55.583Z,41.38
2023-12-11T06:49:23.189Z,61.22
2023-12-11T06:51:51.436Z,32.53
2023-12-11T06:54:19.471Z,48.03
2023-12-11T06:56:46.732Z,47.30
2023-12-11T06:59:14.214Z,35.65
2023-12-11T07:01:42.545Z,35.60
2023-12-11T07:04:10.370Z,41.88
2023-12-11T07:06:39.051Z,50.47
2023-12-11T07:09:06.557Z,55.75
2023-12-11T07:11:33.949Z,48.30
2023-12-11T07:14:01.275Z,61.80
2023-12-11T07:16:28.679Z,66.32
2023-12-11T07:18:56.270Z,54.08
2023-12-11T07:21:23.664Z,50.70
2023-12-11T07:23:51.737Z,53.78
2023-12-11T07:26:19.232Z,64.00
2023-12-11T07:28:46.517Z,58.55
2023-12-11T07:31:13.981Z,63.33
2023-12-11T07:33:42.716Z,54.58
2023-12-11T07:36:11.936Z,64.60
2023-12-11T07:38:39.166Z,49.67
2023-12-11T07:41:08.065Z,50.72
2023-12-11T07:43:36.914Z,58.90
2023-12-11T07:46:05.356Z,40.22
2023-12-11T07:48:32.791Z,46.40
2023-12-11T07:51:00.396Z,40.97
2023-12-11T07:53:27.936Z,32.65
2023-12-11T07:55:55.183Z,34.85
2023-12-11T07:58:22.628Z,37.88
2023-12-11T08:00:50.080Z,40.13
2023-12-11T08:03:17.733Z,37.78
2023-12-11T08:05:45.205Z,33.75
2023-12-11T08:08:13.418Z,52.20
2023-12-11T08:10:41.204Z,42.88
2023-12-11T08:13:08.995Z,67.60
2023-12-11T08:15:37.357Z,67.88
2023-12-11T08:18:04.781Z,51.92
2023-12-11T08:20:32.278Z,63.75
2023-12-11T08:22:59.523Z,54.85
2023-12-11T08:25:27.073Z,54.88
2023-12-11T08:27:54.933Z,44.78
2023-12-11T08:30:22.160Z,69.10
2023-12-11T08:32:49.476Z,46.97
2023-12-11T08:35:16.876Z,52.53
2023-12-11T08:37:44.562Z,43.35
2023-12-11T08:40:12.108Z,47.72
2023-12-11T08:42:41.400Z,55.72
2023-12-11T08:45:10.131Z,58.55
2023-12-11T08:47:39.804Z,57.85
2023-12-11T08:50:08.775Z,64.15
2023-12-11T08:52:37.208Z,56.47
2023-12-11T08:55:04.771Z,60.78
2023-12-11T08:57:50.761Z,63.05
2023-12-11T09:00:18.224Z,61.35
2023-12-11T09:02:45.622Z,55.55
2023-12-11T09:05:12.909Z,44.58
2023-12-11T09:07:40.091Z,40.03
2023-12-11T09:10:09.582Z,42.60
2023-12-11T09:12:37.458Z,44.53
2023-12-11T09:15:05.141Z,37.83
2023-12-11T09:17:33.846Z,43.00
2023-12-11T09:20:05.538Z,40.70
2023-12-11T09:22:33.367Z,38.78
2023-12-11T09:25:00.797Z,40.40
2023-12-11T09:27:28.233Z,38.20
2023-12-11T09:29:55.665Z,40.03
2023-12-11T09:32:23.762Z,43.33
2023-12-11T09:34:52.696Z,33.53
2023-12-11T09:37:20.797Z,41.90
2023-12-11T09:39:48.605Z,41.97
2023-12-11T09:42:15.928Z,45.50
2023-12-11T09:44:46.142Z,50.63
2023-12-11T09:47:19.736Z,46.67
2023-12-11T09:49:47.815Z,44.45
2023-12-11T09:52:15.504Z,48.15
2023-12-11T09:54:43.469Z,42.10
2023-12-11T09:57:12.075Z,41.20
2023-12-11T09:59:41.132Z,39.30
2023-12-11T10:02:18.469Z,43.95
2023-12-11T10:05:15.389Z,39.63
2023-12-11T10:07:43.357Z,39.78
2023-12-11T10:10:23.035Z,40.63
2023-12-11T10:12:50.636Z,51.60
2023-12-11T10:15:25.278Z,49.20
2023-12-11T10:18:03.902Z,54.60
2023-12-11T10:20:31.592Z,52.42
2023-12-11T10:23:03.208Z,52.05
2023-12-11T10:25:31.978Z,46.10
2023-12-11T10:28:06.623Z,41.53
2023-12-11T10:30:34.085Z,43.30
2023-12-11T10:33:02.798Z,46.15
2023-12-11T10:35:30.259Z,39.80
2023-12-11T10:38:01.727Z,43.70
2023-12-11T10:40:42.228Z,42.13
2023-12-11T10:43:09.794Z,38.95
2023-12-11T10:45:40.250Z,49.53
2023-12-11T10:48:08.470Z,44.10
2023-12-11T10:50:37.208Z,40.28
2023-12-11T10:53:07.471Z,44.08
2023-12-11T10:55:37.370Z,46.35
2023-12-11T10:58:04.902Z,42.03
2023-12-11T11:00:33.908Z,45.55
2023-12-11T11:03:06.469Z,45.95
2023-12-11T11:05:36.274Z,43.50
2023-12-11T11:08:43.749Z,41.88
2023-12-11T11:11:11.307Z,40.25
2023-12-11T11:13:41.433Z,42.20
2023-12-11T11:16:09.021Z,47.83
2023-12-11T11:18:59.094Z,45.47
2023-12-11T11:21:26.356Z,43.38
2023-12-11T11:23:56.200Z,40.63
2023-12-11T11:26:44.046Z,40.60
2023-12-11T11:29:33.802Z,41.10
2023-12-11T11:32:01.513Z,51.70
2023-12-11T11:34:41.518Z,47.30
2023-12-11T11:37:19.103Z,49.85
2023-12-11T11:39:59.249Z,41.58
2023-12-11T11:42:28.739Z,43.42
2023-12-11T11:45:00.104Z,46.03
2023-12-11T11:47:28.073Z,40.95
2023-12-11T11:50:03.975Z,45.67
2023-12-11T11:52:31.339Z,44.20
2023-12-11T11:55:02.686Z,47.17
2023-12-11T11:57:30.437Z,45.80
2023-12-11T11:59:57.770Z,48.63
2023-12-11T12:02:25.348Z,51.80
2023-12-11T12:04:52.685Z,48.90
2023-12-11T12:07:20.264Z,55.38
2023-12-11T12:09:51.556Z,53.20
2023-12-11T12:12:19.088Z,53.60
2023-12-11T12:14:46.663Z,57.58
2023-12-11T12:17:13.928Z,52.75
2023-12-11T12:19:41.241Z,49.15
2023-12-11T12:22:10.388Z,51.08
2023-12-11T12:24:41.742Z,46.65
2023-12-11T12:27:10.994Z,50.85
2023-12-11T12:29:38.340Z,54.22
2023-12-11T12:32:05.928Z,55.53
2023-12-11T12:34:35.295Z,58.63
2023-12-11T12:37:04.860Z,65.55
2023-12-11T12:39:32.390Z,54.65
2023-12-11T12:41:59.663Z,63.15
2023-12-11T12:44:26.883Z,56.53
2023-12-11T12:46:54.524Z,58.75
2023-12-11T12:49:21.862Z,49.80
2023-12-11T12:51:50.348Z,59.50
2023-12-11T12:54:17.763Z,53.47
2023-12-11T12:56:45.691Z,48.90
2023-12-11T12:59:13.135Z,50.25
2023-12-11T13:01:41.862Z,42.22
2023-12-11T13:04:09.880Z,46.55
2023-12-11T13:06:37.437Z,45.35
2023-12-11T13:09:05.724Z,32.72
2023-12-11T13:11:42.995Z,41.15
2023-12-11T13:14:13.878Z,42.53
2023-12-11T13:16:45.286Z,41.53
2023-12-11T13:19:15.098Z,43.42
2023-12-11T13:21:43.043Z,45.63
2023-12-11T13:24:10.398Z,44.78
2023-12-11T13:26:37.692Z,44.65
2023-12-11T13:29:04.899Z,43.70
2023-12-11T13:31:32.208Z,43.95
2023-12-11T13:33:59.714Z,42.42
2023-12-11T13:36:26.964Z,44.70
2023-12-11T13:38:54.184Z,41.20
2023-12-11T13:41:21.389Z,42.55
2023-12-11T13:43:48.625Z,37.15
2023-12-11T13:46:15.896Z,44.40
2023-12-11T13:48:43.282Z,44.42
2023-12-11T13:51:11.208Z,40.38
2023-12-11T13:53:38.638Z,42.55
2023-12-11T13:56:06.291Z,40.08
2023-12-11T13:58:33.649Z,40.45
2023-12-11T14:01:02.117Z,41.25
2023-12-11T14:03:32.776Z,41.42
2023-12-11T14:06:00.221Z,39.97
2023-12-11T14:08:28.074Z,50.05
2023-12-11T14:10:55.311Z,44.25
2023-12-11T14:13:22.527Z,45.03
2023-12-11T14:15:49.894Z,43.40
2023-12-11T14:18:17.100Z,43.38
2023-12-11T14:20:44.298Z,40.65
2023-12-11T14:23:13.471Z,51.45
2023-12-11T14:25:40.877Z,44.60
2023-12-11T14:28:08.102Z,45.45
2023-12-11T14:30:35.936Z,40.20
2023-12-11T14:33:04.374Z,47.95
2023-12-11T14:35:31.689Z,43.97
2023-12-11T14:37:59.458Z,44.38
2023-12-11T14:40:26.765Z,41.90
2023-12-11T14:42:54.180Z,44.15
2023-12-11T14:45:21.525Z,40.03
2023-12-11T14:47:49.049Z,45.80
2023-12-11T14:50:16.726Z,41.47
2023-12-11T14:52:45.036Z,39.83
2023-12-11T14:55:13.863Z,45.88
2023-12-11T14:57:42.699Z,44.40
2023-12-11T15:00:13.721Z,42.45
2023-12-11T15:02:41.166Z,46.47
2023-12-11T15:05:08.613Z,46.53
2023-12-11T15:07:36.331Z,44.17
2023-12-11T15:10:04.641Z,41.75
2023-12-11T15:12:32.227Z,40.67
2023-12-11T15:15:03.773Z,51.60
2023-12-11T15:17:31.210Z,52.75
2023-12-11T15:19:58.830Z,46.05
2023-12-11T15:22:26.280Z,42.78
2023-12-11T15:24:56.385Z,47.97
2023-12-11T15:27:23.549Z,41.17
2023-12-11T15:29:51.991Z,49.35
2023-12-11T15:32:20.965Z,43.17
2023-12-11T15:34:48.290Z,42.85
2023-12-11T15:37:15.824Z,45.53
2023-12-11T15:39:43.155Z,45.78
2023-12-11T15:42:10.576Z,54.30
2023-12-11T15:44:38.083Z,51.90
2023-12-11T15:47:07.769Z,44.67
2023-12-11T15:49:36.495Z,49.75
2023-12-11T15:52:03.965Z,45.53
2023-12-11T15:54:33.335Z,50.35
2023-12-11T15:57:01.408Z,47.25
2023-12-11T15:59:28.856Z,45.95
2023-12-11T16:01:56.285Z,48.83
2023-12-11T16:04:23.621Z,46.58
2023-12-11T16:06:51.003Z,42.60
2023-12-11T16:09:19.148Z,51.78
2023-12-11T16:11:46.874Z,45.65
2023-12-11T16:14:14.093Z,50.40
2023-12-11T16:16:43.483Z,45.40
2023-12-11T16:19:11.680Z,49.25
2023-12-11T16:21:39.412Z,46.13
2023-12-11T16:24:06.744Z,51.17
2023-12-11T16:26:33.951Z,50.35
2023-12-11T16:29:01.152Z,47.97
2023-12-11T16:31:28.488Z,48.47
2023-12-11T16:33:56.029Z,56.47
2023-12-11T16:36:23.489Z,42.67
2023-12-11T16:38:51.274Z,43.53
2023-12-11T16:41:26.360Z,42.78
2023-12-11T16:43:53.909Z,44.47
2023-12-11T16:46:22.029Z,57.45
2023-12-11T16:48:49.597Z,40.72
2023-12-11T16:51:17.060Z,41.03
2023-12-11T16:53:46.975Z,49.97
2023-12-11T16:56:14.582Z,44.88
2023-12-11T16:58:43.080Z,45.25
2023-12-11T17:01:12.636Z,44.58
2023-12-11T17:03:40.163Z,39.63
2023-12-11T17:06:07.609Z,47.63
2023-12-11T17:08:34.756Z,49.83
2023-12-11T17:11:02.183Z,45.90
2023-12-11T17:13:29.495Z,61.10
2023-12-11T17:15:56.947Z,48.17
2023-12-11T17:18:26.212Z,49.25
2023-12-11T17:20:53.941Z,48.20
2023-12-11T17:23:21.160Z,56.00
2023-12-11T17:25:48.409Z,52.03
2023-12-11T17:28:15.935Z,51.08
2023-12-11T17:30:44.064Z,48.72
2023-12-11T17:33:11.409Z,50.00
2023-12-11T17:35:38.802Z,60.80
2023-12-11T17:38:06.252Z,50.50
2023-12-11T17:40:33.640Z,56.08
2023-12-11T17:43:00.926Z,53.03
2023-12-11T17:45:28.736Z,53.83
2023-12-11T17:47:56.129Z,58.90
2023-12-11T17:50:23.366Z,50.00
2023-12-11T17:52:50.573Z,58.42
2023-12-11T17:55:18.121Z,54.08
2023-12-11T17:57:45.545Z,49.17
2023-12-11T18:00:13.108Z,47.72
2023-12-11T18:02:40.428Z,49.88
2023-12-11T18:05:07.917Z,42.22
2023-12-11T18:07:35.536Z,55.05
2023-12-11T18:10:03.283Z,57.95
2023-12-11T18:12:30.587Z,62.72
2023-12-11T18:14:57.760Z,63.65
2023-12-11T18:17:24.954Z,70.93
2023-12-11T18:19:52.482Z,67.45
2023-12-11T18:22:19.864Z,70.57
2023-12-11T18:24:47.169Z,75.20
2023-12-11T18:27:14.416Z,74.93
2023-12-11T18:29:41.888Z,77.65
2023-12-11T18:32:09.816Z,82.88
2023-12-11T18:34:43.543Z,86.85
2023-12-11T18:37:19.746Z,83.85
2023-12-11T18:39:47.144Z,80.95
2023-12-11T18:42:14.670Z,70.60
2023-12-11T18:44:42.843Z,64.28
2023-12-11T18:47:10.105Z,65.70
2023-12-11T18:49:41.389Z,68.50
2023-12-11T18:52:11.081Z,63.15
2023-12-11T18:54:38.362Z,59.30
2023-12-11T18:57:05.624Z,61.90
2023-12-11T18:59:32.910Z,66.28
2023-12-11T19:02:00.363Z,60.58
2023-12-11T19:04:27.842Z,62.25
2023-12-11T19:06:55.271Z,58.22
2023-12-11T19:09:22.537Z,68.30
2023-12-11T19:11:51.891Z,59.28
2023-12-11T19:14:19.312Z,56.38
2023-12-11T19:16:47.012Z,57.70
2023-12-11T19:19:14.495Z,62.58
2023-12-11T19:21:42.153Z,56.55
2023-12-11T19:24:10.523Z,56.00
2023-12-11T19:26:38.734Z,60.28
2023-12-11T19:29:06.119Z,59.17
2023-12-11T19:31:33.599Z,59.63
2023-12-11T19:34:02.324Z,61.72
2023-12-11T19:36:31.702Z,63.97
2023-12-11T19:39:01.786Z,64.72
2023-12-11T19:41:29.086Z,61.35
2023-12-11T19:43:57.359Z,64.65
2023-12-11T19:46:25.050Z,67.65
2023-12-11T19:48:55.723Z,61.90
2023-12-11T19:51:25.071Z,58.92
2023-12-11T19:53:53.794Z,66.50
2023-12-11T19:56:22.418Z,66.43
2023-12-11T19:58:52.037Z,68.55
2023-12-11T20:01:29.229Z,69.00
2023-12-11T20:03:56.896Z,67.60
2023-12-11T20:06:28.764Z,67.68
2023-12-11T20:08:56.880Z,76.45
2023-12-11T20:11:27.041Z,72.28
2023-12-11T20:13:54.296Z,65.97
2023-12-11T20:16:23.608Z,73.93
2023-12-11T20:18:51.180Z,61.92
2023-12-11T20:21:18.600Z,69.82
2023-12-11T20:23:47.495Z,69.55
2023-12-11T20:26:18.708Z,70.25
2023-12-11T20:28:45.989Z,67.22
2023-12-11T20:31:17.116Z,72.78
2023-12-11T20:33:45.693Z,60.78
2023-12-11T20:36:19.963Z,68.93
2023-12-11T20:38:48.537Z,61.90
2023-12-11T20:41:28.362Z,66.57
2023-12-11T20:44:04.188Z,65.55
2023-12-11T20:46:32.874Z,60.90
2023-12-11T20:49:00.776Z,60.03
2023-12-11T20:51:28.950Z,64.32
2023-12-11T20:53:56.333Z,67.63
2023-12-11T20:56:31.611Z,66.97
2023-12-11T20:59:00.855Z,59.35
2023-12-11T21:01:29.797Z,59.80
2023-12-11T21:03:58.110Z,63.28
2023-12-11T21:06:25.772Z,62.72
2023-12-11T21:08:53.516Z,63.28
2023-12-11T21:11:21.270Z,62.38
2023-12-11T21:13:49.336Z,63.70
2023-12-11T21:16:17.646Z,59.08
2023-12-11T21:18:47.017Z,65.80
2023-12-11T21:21:23.375Z,59.85
2023-12-11T21:23:51.320Z,58.58
2023-12-11T21:26:25.193Z,62.70
2023-12-11T21:28:54.434Z,64.53
2023-12-11T21:31:23.446Z,60.63
2023-12-11T21:33:52.430Z,61.10
2023-12-11T21:36:24.417Z,58.17
2023-12-11T21:38:51.970Z,55.45
2023-12-11T21:41:19.578Z,54.60
2023-12-11T21:43:48.302Z,43.92
2023-12-11T21:46:16.961Z,50.85
2023-12-11T21:48:45.193Z,51.03
2023-12-11T21:51:16.580Z,47.78
2023-12-11T21:53:44.411Z,52.10
2023-12-11T21:56:11.782Z,53.72
2023-12-11T21:58:39.274Z,51.53
2023-12-11T22:01:06.687Z,53.00
2023-12-11T22:03:34.155Z,61.17
2023-12-11T22:06:03.933Z,57.33
2023-12-11T22:08:31.346Z,60.05
2023-12-11T22:10:58.577Z,58.88
2023-12-11T22:13:26.086Z,50.50
2023-12-11T22:15:53.522Z,54.15
2023-12-11T22:18:21.151Z,56.13
2023-12-11T22:20:48.613Z,53.08
2023-12-11T22:23:15.839Z,51.72
2023-12-11T22:25:43.172Z,55.58
2023-12-11T22:28:10.770Z,55.38
2023-12-11T22:30:38.137Z,54.38
2023-12-11T22:33:05.435Z,52.63
2023-12-11T22:35:32.732Z,54.08
2023-12-11T22:37:59.938Z,48.20
2023-12-11T22:40:27.290Z,47.10
2023-12-11T22:42:54.592Z,53.22
2023-12-11T22:45:22.994Z,41.80
2023-12-11T22:47:50.534Z,43.67
2023-12-11T22:50:17.876Z,39.63
2023-12-11T22:52:45.102Z,43.45
2023-12-11T22:55:12.733Z,43.35
2023-12-11T22:57:40.464Z,39.55
2023-12-11T23:00:11.793Z,38.75
2023-12-11T23:02:39.844Z,37.17
2023-12-11T23:05:07.423Z,40.65
2023-12-11T23:07:35.259Z,33.92
2023-12-11T23:10:03.046Z,37.63
2023-12-11T23:12:30.311Z,36.97
2023-12-11T23:14:57.755Z,38.28
2023-12-11T23:17:25.048Z,43.05
2023-12-11T23:19:52.452Z,40.35
2023-12-11T23:22:19.729Z,38.20
2023-12-11T23:24:46.947Z,39.30
2023-12-11T23:27:14.049Z,43.53
2023-12-11T23:29:42.339Z,41.38
2023-12-11T23:32:13.071Z,39.63
2023-12-11T23:34:40.284Z,39.30
2023-12-11T23:37:07.489Z,39.47
2023-12-11T23:39:34.824Z,44.38
2023-12-11T23:42:02.032Z,39.60
2023-12-11T23:44:29.262Z,44.92
2023-12-11T23:46:56.466Z,42.05
2023-12-11T23:49:23.709Z,36.88
2023-12-11T23:51:50.988Z,40.55
2023-12-11T23:54:18.260Z,41.17
2023-12-11T23:56:45.755Z,45.33
2023-12-11T23:59:13.002Z,35.53
